首页
METAR-TAF:

METAR-TAF

机场 :

伊魁特機場

伊魁特, 努那武特, 加拿大

纬度: 63-45N, 经度: 068-33W, 海拔: 34米

当前天气观测

该预报发布于33分钟前的13:00 UTC
风速5节,风向北转西北
温度 -24°C
湿度 63%
气压 1009 hPa
能見度: 32.2公里
多云层高于18000英尺
多云层高于25000英尺

METAR: CYFB 171300Z 34005KT 20SM BKN180 BKN250 M24/M29 A2980 RMK AC5CI2 SLP099

时间: 08:33 (13:33 UTC)

预报

该预报发布于1小时和51分钟前的11:42 UTC
预报有效从17日的 12点(UTC)到 18日的 12点(UTC)
风速7节,风向北转西北
能見度: 10公里
天空无云

TAF: CYFB 171142Z 1712/1812 34007KT P6SM SKC RMK NXT FCST BY 171800Z

超过4000个机场的气象观测和天气预报(METAR&TAF报告)。

可查询的气象台以黄色和红色小点在地图上表示。

将鼠标移到小点上方,可查看气象台名称。

然后点击查看天气观测和预报。

如需切换地图:点击带黑十字的绿色按钮放大地图;点击带横线的绿色按钮缩小地图;或者点击绿色箭头查看邻近地区的地图。


METAR-TAF: